createdAt,value
2019-04-07T00:00:42.632Z,31.57
2019-04-07T00:03:14.533Z,30.23
2019-04-07T00:05:46.314Z,33.07
2019-04-07T00:08:18.353Z,30.13
2019-04-07T00:10:51.718Z,29.53
2019-04-07T00:13:24.243Z,32.37
2019-04-07T00:15:56.025Z,29.53
2019-04-07T00:18:27.782Z,31.23
2019-04-07T00:20:59.499Z,33.40
2019-04-07T00:23:33.541Z,32.27
2019-04-07T00:26:05.333Z,28.33
2019-04-07T00:28:37.071Z,31.37
2019-04-07T00:31:08.871Z,31.83
2019-04-07T00:33:41.347Z,31.07
2019-04-07T00:36:13.133Z,28.03
2019-04-07T00:38:45.116Z,30.63
2019-04-07T00:41:16.834Z,30.07
2019-04-07T00:43:48.511Z,30.63
2019-04-07T00:46:21.300Z,31.83
2019-04-07T00:48:53.952Z,29.60
2019-04-07T00:51:25.694Z,32.70
2019-04-07T00:53:57.445Z,30.70
2019-04-07T00:56:29.137Z,28.27
2019-04-07T00:59:01.079Z,28.40
2019-04-07T01:01:32.999Z,29.67
2019-04-07T01:04:04.830Z,28.60
2019-04-07T01:06:36.579Z,28.67
2019-04-07T01:09:11.346Z,30.70
2019-04-07T01:11:43.115Z,29.60
2019-04-07T01:14:14.907Z,30.17
2019-04-07T01:16:47.184Z,29.77
2019-04-07T01:19:20.110Z,30.67
2019-04-07T01:21:51.922Z,30.43
2019-04-07T01:24:24.107Z,28.73
2019-04-07T01:26:55.896Z,33.47
2019-04-07T01:29:27.605Z,29.37
2019-04-07T01:31:59.436Z,29.23
2019-04-07T01:34:31.535Z,29.00
2019-04-07T01:37:03.507Z,30.33
2019-04-07T01:39:35.366Z,27.50
2019-04-07T01:42:18.281Z,29.70
2019-04-07T01:45:07.723Z,29.77
2019-04-07T01:47:52.341Z,31.17
2019-04-07T01:50:37.401Z,29.63
2019-04-07T01:53:28.089Z,30.63
2019-04-07T01:56:19.527Z,29.33
2019-04-07T01:58:58.268Z,30.40
2019-04-07T02:01:38.681Z,29.90
2019-04-07T02:04:28.290Z,30.77
2019-04-07T02:07:16.225Z,31.73
2019-04-07T02:10:12.004Z,30.20
2019-04-07T02:13:01.188Z,30.30
2019-04-07T02:16:00.206Z,31.57
2019-04-07T02:18:40.080Z,28.50
2019-04-07T02:21:32.756Z,32.37
2019-04-07T02:24:15.768Z,32.17
2019-04-07T02:26:57.635Z,29.70
2019-04-07T02:29:40.726Z,30.90
2019-04-07T02:32:31.315Z,29.00
2019-04-07T02:35:21.036Z,33.47
2019-04-07T02:38:03.976Z,28.73
2019-04-07T02:40:57.154Z,30.93
2019-04-07T02:43:54.004Z,30.63
2019-04-07T02:46:44.165Z,33.10
2019-04-07T02:49:35.599Z,29.47
2019-04-07T02:52:36.932Z,29.07
2019-04-07T02:55:28.257Z,30.03
2019-04-07T02:58:06.419Z,31.13
2019-04-07T03:00:50.712Z,32.73
2019-04-07T03:03:36.698Z,28.43
2019-04-07T03:06:40.408Z,31.97
2019-04-07T03:09:11.077Z,31.70
2019-04-07T03:11:52.446Z,31.10
2019-04-07T03:14:30.216Z,35.87
2019-04-07T03:17:13.928Z,34.23
2019-04-07T03:19:54.311Z,30.40
2019-04-07T03:22:57.256Z,31.17
2019-04-07T03:25:54.801Z,29.20
2019-04-07T03:28:52.529Z,31.13
2019-04-07T03:31:36.505Z,34.07
2019-04-07T03:34:30.655Z,31.63
2019-04-07T03:37:22.875Z,32.67
2019-04-07T03:39:56.893Z,29.90
2019-04-07T03:42:38.980Z,28.53
2019-04-07T03:45:41.895Z,30.20
2019-04-07T03:48:18.522Z,28.60
2019-04-07T03:51:18.980Z,30.13
2019-04-07T03:54:05.505Z,28.30
2019-04-07T03:56:46.264Z,26.83
2019-04-07T03:59:24.963Z,29.63
2019-04-07T04:02:15.700Z,28.27
2019-04-07T04:05:10.658Z,32.17
2019-04-07T04:07:50.133Z,28.47
2019-04-07T04:10:37.275Z,28.67
2019-04-07T04:13:27.372Z,29.93
2019-04-07T04:16:05.978Z,27.60
2019-04-07T04:18:37.887Z,29.70
2019-04-07T04:21:09.569Z,29.57
2019-04-07T04:23:43.016Z,28.47
2019-04-07T04:26:15.119Z,27.53
2019-04-07T04:28:46.908Z,27.10
2019-04-07T04:31:19.525Z,27.87
2019-04-07T04:33:51.729Z,26.40
2019-04-07T04:36:24.046Z,27.97
2019-04-07T04:38:56.051Z,26.77
2019-04-07T04:41:27.839Z,26.83
2019-04-07T04:44:00.428Z,28.13
2019-04-07T04:46:32.654Z,27.37
2019-04-07T04:49:04.865Z,28.47
2019-04-07T04:51:39.293Z,30.57
2019-04-07T04:54:10.896Z,27.70
2019-04-07T04:56:43.426Z,26.00
2019-04-07T04:59:15.231Z,27.20
2019-04-07T05:01:47.803Z,29.00
2019-04-07T05:04:19.527Z,25.07
2019-04-07T05:06:51.586Z,25.20
2019-04-07T05:09:23.350Z,27.70
2019-04-07T05:11:55.044Z,26.30
2019-04-07T05:14:28.430Z,24.43
2019-04-07T05:17:02.379Z,25.63
2019-04-07T05:19:37.590Z,25.47
2019-04-07T05:22:09.299Z,26.83
2019-04-07T05:24:42.456Z,26.67
2019-04-07T05:27:14.227Z,27.27
2019-04-07T05:29:46.630Z,28.43
2019-04-07T05:32:18.398Z,24.63
2019-04-07T05:34:50.578Z,25.47
2019-04-07T05:37:22.989Z,25.80
2019-04-07T05:39:55.025Z,26.17
2019-04-07T05:42:26.939Z,27.07
2019-04-07T05:44:58.638Z,26.47
2019-04-07T05:47:31.408Z,28.10
2019-04-07T05:50:05.150Z,28.67
2019-04-07T05:52:39.510Z,28.03
2019-04-07T05:55:10.844Z,27.53
2019-04-07T05:57:43.147Z,29.43
2019-04-07T06:00:16.651Z,27.67
2019-04-07T06:02:50.735Z,27.00
2019-04-07T06:05:22.877Z,27.27
2019-04-07T06:07:54.634Z,27.40
2019-04-07T06:10:28.679Z,27.50
2019-04-07T06:12:59.764Z,28.77
2019-04-07T06:15:32.448Z,28.37
2019-04-07T06:18:04.256Z,30.00
2019-04-07T06:20:36.062Z,27.53
2019-04-07T06:23:08.447Z,27.53
2019-04-07T06:25:42.361Z,29.27
2019-04-07T06:28:17.233Z,27.17
2019-04-07T06:30:49.536Z,28.17
2019-04-07T06:33:21.456Z,27.80
2019-04-07T06:35:55.121Z,29.57
2019-04-07T06:38:33.627Z,27.87
2019-04-07T06:41:02.028Z,25.33
2019-04-07T06:43:37.127Z,28.30
2019-04-07T06:46:28.570Z,26.10
2019-04-07T06:49:04.294Z,24.33
2019-04-07T06:52:04.862Z,25.70
2019-04-07T06:54:53.110Z,26.13
2019-04-07T06:57:48.203Z,25.40
2019-04-07T07:00:30.538Z,23.90
2019-04-07T07:03:33.583Z,23.93
2019-04-07T07:06:29.478Z,24.57
2019-04-07T07:09:25.806Z,24.13
2019-04-07T07:12:34.979Z,24.57
2019-04-07T07:15:12.824Z,23.30
2019-04-07T07:18:15.529Z,23.20
2019-04-07T07:21:04.276Z,26.57
2019-04-07T07:23:39.743Z,25.20
2019-04-07T07:26:11.589Z,25.13
2019-04-07T07:28:44.961Z,27.43
2019-04-07T07:31:18.120Z,25.50
2019-04-07T07:33:49.999Z,27.50
2019-04-07T07:36:23.021Z,26.13
2019-04-07T07:39:01.198Z,26.10
2019-04-07T07:41:29.130Z,26.37
2019-04-07T07:44:03.630Z,27.27
2019-04-07T07:46:36.429Z,25.33
2019-04-07T07:49:08.207Z,26.87
2019-04-07T07:51:40.561Z,26.10
2019-04-07T07:54:14.791Z,27.17
2019-04-07T07:56:50.066Z,27.43
2019-04-07T07:59:20.537Z,26.40
2019-04-07T08:01:54.516Z,25.10
2019-04-07T08:04:26.942Z,25.93
2019-04-07T08:07:02.237Z,25.60
2019-04-07T08:09:32.994Z,24.07
2019-04-07T08:12:05.150Z,23.63
2019-04-07T08:14:37.145Z,25.07
2019-04-07T08:17:09.413Z,23.10
2019-04-07T08:19:44.134Z,21.00
2019-04-07T08:22:26.668Z,22.73
2019-04-07T08:24:51.103Z,20.17
2019-04-07T08:27:23.963Z,21.33
2019-04-07T08:29:57.167Z,21.67
2019-04-07T08:32:32.016Z,19.70
2019-04-07T08:35:05.303Z,20.80
2019-04-07T08:37:55.595Z,20.80
2019-04-07T08:40:27.520Z,17.57
2019-04-07T08:42:59.502Z,18.90
2019-04-07T08:45:32.684Z,18.37
2019-04-07T08:48:05.147Z,19.27
2019-04-07T08:50:37.447Z,17.53
2019-04-07T08:53:11.498Z,17.60
2019-04-07T08:55:42.878Z,17.70
2019-04-07T08:58:25.208Z,15.73
2019-04-07T09:00:52.747Z,16.00
2019-04-07T09:03:24.629Z,16.73
2019-04-07T09:05:57.525Z,15.07
2019-04-07T09:08:30.703Z,14.77
2019-04-07T09:11:09.003Z,13.97
2019-04-07T09:13:43.041Z,12.47
2019-04-07T09:16:23.594Z,11.47
2019-04-07T09:19:13.729Z,15.13
2019-04-07T09:21:57.950Z,10.33
2019-04-07T09:24:47.354Z,11.33
2019-04-07T09:27:24.598Z,10.60
2019-04-07T09:30:02.675Z,11.50
2019-04-07T09:32:53.359Z,10.57
2019-04-07T09:35:49.755Z,10.00
2019-04-07T09:38:36.659Z,9.67
2019-04-07T09:41:36.515Z,9.63
2019-04-07T09:44:27.769Z,10.20
2019-04-07T09:47:18.033Z,10.67
2019-04-07T09:50:09.114Z,8.83
2019-04-07T09:52:57.099Z,9.70
2019-04-07T09:55:59.929Z,9.97
2019-04-07T09:58:55.790Z,11.73
2019-04-07T10:01:50.849Z,10.67
2019-04-07T10:04:56.684Z,12.10
2019-04-07T10:07:53.286Z,9.90
2019-04-07T10:10:47.266Z,9.90
2019-04-07T10:13:44.205Z,10.63
2019-04-07T10:16:31.839Z,10.47
2019-04-07T10:19:31.672Z,11.03
2019-04-07T10:22:22.203Z,10.73
2019-04-07T10:25:06.133Z,10.72
2019-04-07T10:27:55.612Z,10.40
2019-04-07T10:30:38.182Z,10.40
2019-04-07T10:33:23.714Z,10.45
2019-04-07T10:36:17.262Z,10.40
2019-04-07T10:39:14.368Z,11.05
2019-04-07T10:42:04.671Z,10.05
2019-04-07T10:44:53.804Z,10.55
2019-04-07T10:47:41.495Z,10.32
2019-04-07T10:50:32.456Z,10.00
2019-04-07T10:53:23.879Z,10.00
2019-04-07T10:56:01.104Z,9.20
2019-04-07T10:59:04.583Z,9.73
2019-04-07T11:01:56.674Z,9.00
2019-04-07T11:04:50.929Z,9.28
2019-04-07T11:07:38.241Z,8.45
2019-04-07T11:10:35.441Z,8.85
2019-04-07T11:13:28.927Z,9.30
2019-04-07T11:16:18.880Z,8.70
2019-04-07T11:19:09.887Z,8.20
2019-04-07T11:22:14.416Z,8.63
2019-04-07T11:24:56.725Z,9.48
2019-04-07T11:28:00.282Z,9.35
2019-04-07T11:30:50.924Z,8.95
2019-04-07T11:33:29.033Z,8.58
2019-04-07T11:36:24.435Z,9.30
2019-04-07T11:39:24.945Z,8.80
2019-04-07T11:42:16.979Z,7.97
2019-04-07T11:45:14.872Z,8.70
2019-04-07T11:48:06.639Z,8.50
2019-04-07T11:50:50.696Z,8.23
2019-04-07T11:53:44.669Z,8.70
2019-04-07T11:56:28.508Z,8.30
2019-04-07T11:59:14.773Z,8.83
2019-04-07T12:02:08.605Z,9.18
2019-04-07T12:04:59.931Z,8.00
2019-04-07T12:07:55.784Z,8.38
2019-04-07T12:10:34.391Z,9.08
2019-04-07T12:13:14.394Z,7.85
2019-04-07T12:16:11.088Z,8.60
2019-04-07T12:18:59.070Z,8.28
2019-04-07T12:21:39.389Z,8.83
2019-04-07T12:24:28.657Z,8.93
2019-04-07T12:27:28.957Z,8.43
2019-04-07T12:30:26.481Z,8.70
2019-04-07T12:33:09.107Z,7.97
2019-04-07T12:36:01.902Z,10.50
2019-04-07T12:39:00.308Z,8.83
2019-04-07T12:42:04.422Z,8.78
2019-04-07T12:44:44.113Z,10.35
2019-04-07T12:47:37.280Z,8.90
2019-04-07T12:50:29.641Z,8.60
2019-04-07T12:53:26.694Z,8.30
2019-04-07T12:56:18.111Z,9.35
2019-04-07T12:59:21.538Z,9.33
2019-04-07T13:02:20.037Z,9.13
2019-04-07T13:05:24.146Z,9.48
2019-04-07T13:08:22.558Z,9.75
2019-04-07T13:11:31.304Z,9.75
2019-04-07T13:14:14.038Z,9.18
2019-04-07T13:17:04.192Z,9.98
2019-04-07T13:19:58.388Z,9.35
2019-04-07T13:22:55.167Z,9.60
2019-04-07T13:25:36.393Z,10.05
2019-04-07T13:28:37.132Z,9.95
2019-04-07T13:31:21.261Z,10.15
2019-04-07T13:34:18.035Z,10.03
2019-04-07T13:37:03.451Z,9.90
2019-04-07T13:40:01.454Z,10.58
2019-04-07T13:42:58.972Z,9.88
2019-04-07T13:45:55.834Z,10.80
2019-04-07T13:48:56.712Z,10.38
2019-04-07T13:51:40.868Z,10.05
2019-04-07T13:54:32.970Z,10.00
2019-04-07T13:57:37.148Z,10.43
2019-04-07T14:00:30.638Z,9.63
2019-04-07T14:03:23.339Z,10.45
2019-04-07T14:06:16.346Z,12.90
2019-04-07T14:09:06.755Z,9.70
2019-04-07T14:12:04.213Z,10.32
2019-04-07T14:14:49.456Z,10.15
2019-04-07T14:17:32.784Z,10.20
2019-04-07T14:20:21.537Z,10.03
2019-04-07T14:23:14.978Z,10.43
2019-04-07T14:25:59.015Z,11.12
2019-04-07T14:28:40.181Z,9.98
2019-04-07T14:31:25.183Z,10.35
2019-04-07T14:34:21.893Z,10.77
2019-04-07T14:37:18.622Z,9.70
2019-04-07T14:40:28.003Z,9.58
2019-04-07T14:43:28.267Z,9.60
2019-04-07T14:46:18.445Z,9.27
2019-04-07T14:49:15.589Z,9.87
2019-04-07T14:52:21.030Z,9.73
2019-04-07T14:55:16.229Z,10.10
2019-04-07T14:58:13.099Z,9.43
2019-04-07T15:01:06.564Z,10.45
2019-04-07T15:03:38.285Z,10.58
2019-04-07T15:06:10.907Z,9.95
2019-04-07T15:09:08.289Z,10.20
2019-04-07T15:11:48.725Z,9.85
2019-04-07T15:14:21.259Z,9.68
2019-04-07T15:16:53.506Z,10.82
2019-04-07T15:19:25.221Z,9.63
2019-04-07T15:21:58.224Z,10.43
2019-04-07T15:24:30.653Z,10.30
2019-04-07T15:27:03.146Z,9.57
2019-04-07T15:29:42.139Z,10.07
2019-04-07T15:32:11.601Z,9.73
2019-04-07T15:34:44.436Z,9.80
2019-04-07T15:37:19.338Z,10.93
2019-04-07T15:39:50.601Z,11.17
2019-04-07T15:42:33.070Z,9.97
2019-04-07T15:44:57.243Z,8.68
2019-04-07T15:47:29.884Z,9.50
2019-04-07T15:50:01.676Z,10.97
2019-04-07T15:52:35.813Z,11.10
2019-04-07T15:55:11.541Z,9.83
2019-04-07T15:57:44.016Z,9.67
2019-04-07T16:00:16.606Z,10.03
2019-04-07T16:02:50.034Z,9.83
2019-04-07T16:05:22.584Z,10.13
2019-04-07T16:07:55.412Z,11.03
2019-04-07T16:10:30.186Z,10.57
2019-04-07T16:13:02.626Z,10.63
2019-04-07T16:15:36.138Z,10.87
2019-04-07T16:18:08.917Z,11.10
2019-04-07T16:20:41.644Z,11.13
2019-04-07T16:23:17.426Z,11.17
2019-04-07T16:25:47.521Z,10.57
2019-04-07T16:28:19.419Z,10.23
2019-04-07T16:30:52.123Z,10.70
2019-04-07T16:33:23.812Z,10.03
2019-04-07T16:35:56.576Z,10.63
2019-04-07T16:38:30.138Z,10.40
2019-04-07T16:41:02.681Z,10.50
2019-04-07T16:43:37.564Z,11.53
2019-04-07T16:46:08.855Z,11.80
2019-04-07T16:48:43.594Z,10.73
2019-04-07T16:51:17.876Z,11.83
2019-04-07T16:53:49.933Z,9.97
2019-04-07T16:56:22.261Z,10.67
2019-04-07T16:58:55.403Z,10.33
2019-04-07T17:01:27.125Z,11.17
2019-04-07T17:03:59.441Z,10.67
2019-04-07T17:06:35.303Z,11.00
2019-04-07T17:09:09.884Z,10.33
2019-04-07T17:11:41.627Z,10.37
2019-04-07T17:14:14.181Z,10.03
2019-04-07T17:16:47.163Z,10.73
2019-04-07T17:19:19.987Z,9.67
2019-04-07T17:21:51.999Z,9.80
2019-04-07T17:24:27.190Z,9.60
2019-04-07T17:26:58.175Z,9.57
2019-04-07T17:29:30.156Z,10.53
2019-04-07T17:32:02.835Z,10.03
2019-04-07T17:34:35.614Z,10.43
2019-04-07T17:37:07.382Z,10.27
2019-04-07T17:39:58.179Z,9.67
2019-04-07T17:42:30.330Z,10.37
2019-04-07T17:45:23.489Z,9.57
2019-04-07T17:48:21.102Z,10.80
2019-04-07T17:51:28.835Z,11.37
2019-04-07T17:54:21.316Z,10.47
2019-04-07T17:57:06.512Z,10.20
2019-04-07T18:00:08.798Z,11.53
2019-04-07T18:03:10.956Z,8.97
2019-04-07T18:05:49.776Z,10.90
2019-04-07T18:08:46.798Z,9.60
2019-04-07T18:11:29.298Z,9.23
2019-04-07T18:14:28.772Z,10.33
2019-04-07T18:17:20.691Z,10.10
2019-04-07T18:20:08.306Z,10.07
2019-04-07T18:22:56.972Z,11.13
2019-04-07T18:25:41.182Z,10.17
2019-04-07T18:28:25.862Z,10.67
2019-04-07T18:31:16.411Z,10.63
2019-04-07T18:34:09.960Z,10.67
2019-04-07T18:37:13.005Z,9.87
2019-04-07T18:40:02.704Z,9.77
2019-04-07T18:42:56.371Z,9.60
2019-04-07T18:45:41.506Z,10.57
2019-04-07T18:48:30.680Z,10.07
2019-04-07T18:51:27.580Z,9.97
2019-04-07T18:54:17.338Z,10.07
2019-04-07T18:57:24.992Z,10.33
2019-04-07T19:00:08.502Z,10.17
2019-04-07T19:03:02.618Z,10.67
2019-04-07T19:05:54.157Z,10.47
2019-04-07T19:08:46.296Z,10.73
2019-04-07T19:11:43.365Z,10.33
2019-04-07T19:14:43.429Z,10.03
2019-04-07T19:17:34.843Z,10.80
2019-04-07T19:20:26.046Z,10.20
2019-04-07T19:23:26.302Z,10.90
2019-04-07T19:26:18.064Z,9.93
2019-04-07T19:28:56.500Z,10.83
2019-04-07T19:31:49.709Z,10.83
2019-04-07T19:34:37.581Z,12.77
2019-04-07T19:37:24.886Z,11.10
2019-04-07T19:40:29.091Z,11.83
2019-04-07T19:43:19.091Z,11.30
2019-04-07T19:46:04.879Z,10.50
2019-04-07T19:48:55.523Z,11.50
2019-04-07T19:51:41.773Z,11.10
2019-04-07T19:54:38.418Z,13.20
2019-04-07T19:57:23.833Z,21.40
2019-04-07T20:00:24.262Z,16.63
2019-04-07T20:03:09.606Z,11.30
2019-04-07T20:05:51.979Z,12.30
2019-04-07T20:08:41.636Z,12.40
2019-04-07T20:11:41.792Z,12.27
2019-04-07T20:14:45.988Z,10.67
2019-04-07T20:17:29.371Z,11.60
2019-04-07T20:20:17.634Z,12.27
2019-04-07T20:22:58.883Z,12.17
2019-04-07T20:25:49.303Z,13.47
2019-04-07T20:28:43.927Z,12.70
2019-04-07T20:31:26.545Z,12.83
2019-04-07T20:34:05.964Z,12.87
2019-04-07T20:37:02.644Z,15.23
2019-04-07T20:40:00.159Z,12.73
2019-04-07T20:42:40.824Z,13.47
2019-04-07T20:45:31.063Z,13.53
2019-04-07T20:48:12.122Z,13.47
2019-04-07T20:51:02.558Z,14.60
2019-04-07T20:53:53.650Z,13.33
2019-04-07T20:56:50.382Z,13.73
2019-04-07T20:59:31.679Z,16.03
2019-04-07T21:02:27.890Z,13.73
2019-04-07T21:05:37.802Z,13.73
2019-04-07T21:08:19.943Z,14.10
2019-04-07T21:11:09.837Z,14.50
2019-04-07T21:13:49.180Z,14.80
2019-04-07T21:16:40.157Z,14.20
2019-04-07T21:19:38.828Z,15.03
2019-04-07T21:22:29.978Z,14.47
2019-04-07T21:25:10.017Z,14.40
2019-04-07T21:28:06.083Z,15.07
2019-04-07T21:30:57.859Z,14.10
2019-04-07T21:33:55.788Z,17.70
2019-04-07T21:36:37.647Z,14.07
2019-04-07T21:39:26.751Z,14.63
2019-04-07T21:42:19.060Z,15.80
2019-04-07T21:45:14.787Z,14.20
2019-04-07T21:48:14.478Z,13.67
2019-04-07T21:51:10.719Z,15.87
2019-04-07T21:53:51.802Z,14.10
2019-04-07T21:56:44.222Z,16.03
2019-04-07T21:59:39.663Z,15.50
2019-04-07T22:02:33.483Z,15.43
2019-04-07T22:05:34.933Z,14.57
2019-04-07T22:08:17.436Z,15.77
2019-04-07T22:10:51.380Z,15.43
2019-04-07T22:13:21.755Z,14.27
2019-04-07T22:15:57.945Z,14.77
2019-04-07T22:18:27.046Z,16.37
2019-04-07T22:20:59.184Z,14.13
2019-04-07T22:23:32.594Z,15.10
2019-04-07T22:26:10.282Z,15.00
2019-04-07T22:28:39.396Z,14.77
2019-04-07T22:31:14.611Z,15.73
2019-04-07T22:33:46.617Z,16.50
2019-04-07T22:36:18.882Z,13.50
2019-04-07T22:38:54.383Z,14.80
2019-04-07T22:41:25.011Z,14.10
2019-04-07T22:43:57.947Z,14.60
2019-04-07T22:46:29.805Z,15.13
2019-04-07T22:49:01.647Z,14.87
2019-04-07T22:51:33.362Z,14.63
2019-04-07T22:54:05.763Z,14.03
2019-04-07T22:56:39.431Z,14.90
2019-04-07T22:59:11.852Z,14.73
2019-04-07T23:01:44.499Z,14.73
2019-04-07T23:04:16.342Z,14.83
2019-04-07T23:06:50.225Z,13.57
2019-04-07T23:09:23.009Z,15.47
2019-04-07T23:11:54.746Z,15.93
2019-04-07T23:14:26.451Z,15.07
2019-04-07T23:17:00.437Z,15.37
2019-04-07T23:19:34.418Z,17.40
2019-04-07T23:22:06.601Z,15.30
2019-04-07T23:24:39.041Z,15.33
2019-04-07T23:27:10.757Z,17.60
2019-04-07T23:29:44.325Z,16.23
2019-04-07T23:32:17.002Z,14.20
2019-04-07T23:34:48.807Z,16.33
2019-04-07T23:37:20.497Z,17.60
2019-04-07T23:39:52.312Z,15.63
2019-04-07T23:42:24.298Z,16.50
2019-04-07T23:44:56.022Z,16.63
2019-04-07T23:47:27.671Z,15.60
2019-04-07T23:49:59.381Z,14.13
2019-04-07T23:52:31.408Z,14.47
2019-04-07T23:55:04.257Z,15.30
2019-04-07T23:57:36.062Z,13.93
